Glen, MS (38846)

01:07 AM CST del 24 Gennaio 2017 (GMT -0600)
Downtown Corinth | | Change Station

Alt. 471 ft 34.93 °N, 88.51 °W | Updated 7 minutes ago

Sereno
Sereno
37.5 °F
Sembra 38 °F
N
0.0
Vento Variabile Vento da NO
Gusts 0.0 mph

Oggi
Massima -- | Minima -- °F
--% Possibilità di precip.
Ieri
Massima -- | Minima -- °F
Precip. -- in
Pressione 29.86 in
Visibilità 7.0 miglia
Nuvole Sereno
Raffreddamento del vento 38 °F
Punto di rugiada 36 °F
Umidità 94%
Piovosità 0.00 in
Spessore del manto nevoso Non disponibile.
6:57 AM 5:14 PM
Luna calante, 13% visible
METAR KCRX 240655Z AUTO 00000KT 7SM CLR 03/02 A2986 RMK AO2
Pressione 29.86 in
Visibilità 7.0 miglia
Nuvole Sereno
Raffreddamento del vento 38 °F
Punto di rugiada 36 °F
Umidità 94%
Piovosità 0.00 in
Spessore del manto nevoso Non disponibile.
6:57 AM 5:14 PM
Luna calante, 13% visible
METAR KCRX 240655Z AUTO 00000KT 7SM CLR 03/02 A2986 RMK AO2

Get Your Daily Forecast Email!

Thanks for signing up!

Be on the lookout for a verification email in your inbox.

You'll start receiving the daily forecast at 8 AM.

×

10-Day Weather Forecast

Almanac

Astronomia

Jan. 24, 2017 Alba Tramonto
Ora attuale
Crepuscolo civile
Crepuscolo nautico
Crepuscolo astronomico
Luna
Estensione della luce visibile
Lunghezza del giorno
Tomorrow will be .
, % of the Moon is Illuminated

Gli estremi di oggi

State Highs State Lows

Community

WunderPhotos

Upload Photos

1,962,540 foto caricate!

WunderBlog® & News

Nearby

Qualità dell'aria

  Qualità dell'aria Indice AQ Inquinante
Not available.

Profondità neve

Stazione Profondità Altitudine

Attività sismica

Città  Distanza Mag. Data & Ora
Minimo Magnitudo Mostrato è 2.5.

Temperature delle acque costiere

Località Temperatura

Stations

Stazioni meteo nelle vicinanze

Ubicazione della stazione Temp. Raffreddamento del vento Punto di rugiada Umidità Vento Precip. Alt. Aggiornato Tipo
                   

Watches & Warnings

There are currently no watches in effect.